createdAt,value
2022-10-05T00:00:12.496Z,88.30
2022-10-05T00:00:35.251Z,88.30
2022-10-05T00:00:59.450Z,88.30
2022-10-05T00:01:26.976Z,88.80
2022-10-05T00:01:50.103Z,89.50
2022-10-05T00:02:19.927Z,88.90
2022-10-05T00:02:42.656Z,88.90
2022-10-05T00:03:09.154Z,89.10
2022-10-05T00:03:39.053Z,89.50
2022-10-05T00:04:06.770Z,88.90
2022-10-05T00:04:29.948Z,88.90
2022-10-05T00:04:54.103Z,89.80
2022-10-05T00:05:27.436Z,89.10
2022-10-05T00:05:50.240Z,89.00
2022-10-05T00:06:15.202Z,89.60
2022-10-05T00:06:37.930Z,90.10
2022-10-05T00:07:02.948Z,89.80
2022-10-05T00:07:25.836Z,90.00
2022-10-05T00:07:48.627Z,93.10
2022-10-05T00:08:14.723Z,82.80
2022-10-05T00:08:37.418Z,86.00
2022-10-05T00:09:00.808Z,87.50
2022-10-05T00:09:23.548Z,92.60
2022-10-05T00:09:48.484Z,92.60
2022-10-05T00:10:11.872Z,92.70
2022-10-05T00:10:34.548Z,90.50
2022-10-05T00:10:57.345Z,92.50
2022-10-05T00:11:20.152Z,93.00
2022-10-05T00:11:43.187Z,93.50
2022-10-05T00:12:13.437Z,94.00
2022-10-05T00:12:36.167Z,94.80
2022-10-05T00:12:58.944Z,95.50
2022-10-05T00:13:22.877Z,95.60
2022-10-05T00:13:47.381Z,95.30
2022-10-05T00:14:17.712Z,95.00
2022-10-05T00:14:40.472Z,95.30
2022-10-05T00:15:03.259Z,95.50
2022-10-05T00:15:25.952Z,95.20
2022-10-05T00:15:49.016Z,95.20
2022-10-05T00:16:15.442Z,95.20
2022-10-05T00:16:38.336Z,95.70
2022-10-05T00:17:02.100Z,95.60
2022-10-05T00:17:26.148Z,95.30
2022-10-05T00:17:49.003Z,95.30
2022-10-05T00:18:15.869Z,95.70
2022-10-05T00:18:38.587Z,96.10
2022-10-05T00:19:01.283Z,96.20
2022-10-05T00:19:26.818Z,95.70
2022-10-05T00:19:52.503Z,95.90
2022-10-05T00:20:17.723Z,95.60
2022-10-05T00:20:42.984Z,95.80
2022-10-05T00:21:13.128Z,95.50
2022-10-05T00:21:35.923Z,94.90
2022-10-05T00:21:59.889Z,94.60
2022-10-05T00:22:24.699Z,95.10
2022-10-05T00:22:47.514Z,93.00
2022-10-05T00:23:17.097Z,91.70
2022-10-05T00:23:39.723Z,91.90
2022-10-05T00:24:02.408Z,96.90
2022-10-05T00:24:25.131Z,95.30
2022-10-05T00:24:48.634Z,86.50
2022-10-05T00:25:12.972Z,93.70
2022-10-05T00:25:35.654Z,92.50
2022-10-05T00:26:03.828Z,93.50
2022-10-05T00:26:27.793Z,95.40
2022-10-05T00:26:55.412Z,91.80
2022-10-05T00:27:21.655Z,92.00
2022-10-05T00:27:53.707Z,89.60
2022-10-05T00:28:18.737Z,74.80
2022-10-05T00:28:41.584Z,79.60
2022-10-05T00:29:08.998Z,71.10
2022-10-05T00:29:33.459Z,78.80
2022-10-05T00:29:59.054Z,66.70
2022-10-05T00:30:21.979Z,55.40
2022-10-05T00:30:44.706Z,53.30
2022-10-05T00:31:11.466Z,56.00
2022-10-05T00:31:34.823Z,57.80
2022-10-05T00:31:57.701Z,58.50
2022-10-05T00:32:20.594Z,58.60
2022-10-05T00:32:43.368Z,58.70
2022-10-05T00:33:06.089Z,57.90
2022-10-05T00:33:32.078Z,58.20
2022-10-05T00:33:55.147Z,59.00
2022-10-05T00:34:17.842Z,62.10
2022-10-05T00:34:40.730Z,60.50
2022-10-05T00:35:03.399Z,62.20
2022-10-05T00:35:29.472Z,63.00
2022-10-05T00:35:54.111Z,61.80
2022-10-05T00:36:16.845Z,62.40
2022-10-05T00:36:39.840Z,66.50
2022-10-05T00:37:02.619Z,62.80
2022-10-05T00:37:25.298Z,63.30
2022-10-05T00:37:53.990Z,64.40
2022-10-05T00:38:16.683Z,66.00
2022-10-05T00:38:39.358Z,71.10
2022-10-05T00:39:02.065Z,62.60
2022-10-05T00:39:24.802Z,69.60
2022-10-05T00:39:47.511Z,68.30
2022-10-05T00:40:17.300Z,67.20
2022-10-05T00:40:46.569Z,59.00
2022-10-05T00:41:11.925Z,59.50
2022-10-05T00:41:41.097Z,57.70
2022-10-05T00:42:18.645Z,57.90
2022-10-05T00:42:44.789Z,56.20
2022-10-05T00:43:32.329Z,56.30
2022-10-05T00:44:14.383Z,56.90
2022-10-05T00:44:39.650Z,57.90
2022-10-05T00:45:03.962Z,66.20
2022-10-05T00:45:28.253Z,65.20
2022-10-05T00:45:51.776Z,72.80
2022-10-05T00:46:16.264Z,83.80
2022-10-05T00:46:46.756Z,56.30
2022-10-05T00:47:24.211Z,55.30
2022-10-05T00:47:51.736Z,57.70
2022-10-05T00:48:18.205Z,60.20
2022-10-05T00:48:45.765Z,58.10
2022-10-05T00:49:12.640Z,63.90
2022-10-05T00:49:47.905Z,61.10
2022-10-05T00:50:20.482Z,63.00
2022-10-05T00:50:55.050Z,61.10
2022-10-05T00:51:22.476Z,60.70
2022-10-05T00:51:47.857Z,55.40
2022-10-05T00:52:20.385Z,57.40
2022-10-05T00:52:47.516Z,58.30
2022-10-05T00:53:19.007Z,61.10
2022-10-05T00:53:44.423Z,59.70
2022-10-05T00:54:18.196Z,59.80
2022-10-05T00:54:44.167Z,54.90
2022-10-05T00:55:10.731Z,55.60
2022-10-05T00:55:39.001Z,50.10
2022-10-05T00:56:03.942Z,49.80
2022-10-05T00:56:38.726Z,54.50
2022-10-05T00:57:17.591Z,50.50
2022-10-05T00:57:46.851Z,55.80
2022-10-05T00:58:16.115Z,58.50
2022-10-05T00:58:46.725Z,53.90
2022-10-05T00:59:13.948Z,49.80
2022-10-05T00:59:44.302Z,53.00
2022-10-05T01:00:08.056Z,54.60
2022-10-05T01:00:30.796Z,57.50
2022-10-05T01:01:01.456Z,56.90
2022-10-05T01:01:27.406Z,58.30
2022-10-05T01:01:53.322Z,56.70
2022-10-05T01:02:16.738Z,56.10
2022-10-05T01:02:46.891Z,61.30
2022-10-05T01:03:11.780Z,59.50
2022-10-05T01:03:40.144Z,53.80
2022-10-05T01:04:08.336Z,56.30
2022-10-05T01:04:34.726Z,55.10
2022-10-05T01:04:59.518Z,54.00
2022-10-05T01:05:43.529Z,54.60
2022-10-05T01:06:12.464Z,56.80
2022-10-05T01:06:40.808Z,56.70
2022-10-05T01:07:09.445Z,57.30
2022-10-05T01:07:36.332Z,55.90
2022-10-05T01:08:02.483Z,58.60
2022-10-05T01:08:31.137Z,59.80
2022-10-05T01:08:57.733Z,60.80
2022-10-05T01:09:22.893Z,66.30
2022-10-05T01:09:49.614Z,67.90
2022-10-05T01:10:16.122Z,61.20
2022-10-05T01:10:41.292Z,54.00
2022-10-05T01:11:07.940Z,54.30
2022-10-05T01:11:33.449Z,54.30
2022-10-05T01:12:00.857Z,53.60
2022-10-05T01:12:26.688Z,54.00
2022-10-05T01:12:54.887Z,53.90
2022-10-05T01:13:21.925Z,52.40
2022-10-05T01:13:49.444Z,50.60
2022-10-05T01:14:16.369Z,46.60
2022-10-05T01:14:45.438Z,46.70
2022-10-05T01:15:11.233Z,42.90
2022-10-05T01:15:36.656Z,48.80
2022-10-05T01:16:04.478Z,57.00
2022-10-05T01:16:30.139Z,46.20
2022-10-05T01:16:55.757Z,51.70
2022-10-05T01:17:22.309Z,59.20
2022-10-05T01:17:48.183Z,58.20
2022-10-05T01:18:12.819Z,60.10
2022-10-05T01:18:39.335Z,58.30
2022-10-05T01:19:07.050Z,57.90
2022-10-05T01:20:05.036Z,28.50
2022-10-05T01:20:35.922Z,31.60
2022-10-05T01:21:01.436Z,30.80
2022-10-05T01:21:26.411Z,32.00
2022-10-05T01:21:51.086Z,38.20
2022-10-05T01:22:18.635Z,30.80
2022-10-05T01:22:51.249Z,30.10
2022-10-05T01:23:46.580Z,26.90
2022-10-05T01:24:40.362Z,20.00
2022-10-05T01:25:13.436Z,25.60
2022-10-05T01:25:38.556Z,24.60
2022-10-05T01:26:09.143Z,27.80
2022-10-05T01:26:43.706Z,26.10
2022-10-05T01:27:15.871Z,27.90
2022-10-05T01:27:42.914Z,27.60
2022-10-05T01:28:07.946Z,24.60
2022-10-05T01:28:32.098Z,25.60
2022-10-05T01:28:56.776Z,23.50
2022-10-05T01:29:22.331Z,25.20
2022-10-05T01:29:48.350Z,25.40
2022-10-05T01:30:12.894Z,20.20
2022-10-05T01:30:38.160Z,20.10
2022-10-05T01:31:03.047Z,18.60
2022-10-05T01:31:27.487Z,24.70
2022-10-05T01:31:53.706Z,20.90
2022-10-05T01:32:19.810Z,9.40
2022-10-05T01:32:45.277Z,19.90
2022-10-05T01:33:12.620Z,22.80
2022-10-05T01:33:37.836Z,21.30
2022-10-05T01:34:10.570Z,20.40
2022-10-05T01:34:38.429Z,25.20
2022-10-05T01:35:06.894Z,22.00
2022-10-05T01:35:37.140Z,28.40
2022-10-05T01:36:02.894Z,25.90
2022-10-05T01:36:28.179Z,22.20
2022-10-05T01:36:53.854Z,16.20
2022-10-05T01:37:19.795Z,12.70
2022-10-05T01:37:48.202Z,12.30
2022-10-05T01:38:19.880Z,12.70
2022-10-05T01:38:45.461Z,11.00
2022-10-05T01:39:11.700Z,14.50
2022-10-05T01:39:37.753Z,14.50
2022-10-05T01:40:04.432Z,17.00
2022-10-05T01:40:31.513Z,21.00
2022-10-05T01:40:59.048Z,10.80
2022-10-05T01:41:28.024Z,25.40
2022-10-05T01:41:53.963Z,22.00
2022-10-05T01:42:22.075Z,18.50
2022-10-05T01:42:52.890Z,27.80
2022-10-05T01:43:19.112Z,24.80
2022-10-05T01:43:46.756Z,24.20
2022-10-05T01:44:10.897Z,27.50
2022-10-05T01:44:36.636Z,27.00
2022-10-05T01:45:02.383Z,28.40
2022-10-05T01:45:28.127Z,25.40
2022-10-05T01:45:56.311Z,29.80
2022-10-05T01:46:24.836Z,28.90
2022-10-05T01:46:50.966Z,27.20
2022-10-05T01:47:16.782Z,17.80
2022-10-05T01:47:43.881Z,26.70
2022-10-05T01:48:10.097Z,20.40
2022-10-05T01:48:37.738Z,16.50
2022-10-05T01:49:17.946Z,15.40
2022-10-05T01:49:43.668Z,18.90
2022-10-05T01:50:09.778Z,12.30
2022-10-05T01:50:35.097Z,12.40
2022-10-05T01:51:02.101Z,16.00
2022-10-05T01:51:34.551Z,22.40
2022-10-05T01:52:02.231Z,14.40
2022-10-05T01:52:28.906Z,21.80
2022-10-05T01:52:56.082Z,17.70
2022-10-05T01:53:23.802Z,13.00
2022-10-05T01:53:53.604Z,8.90
2022-10-05T01:54:22.806Z,20.00
2022-10-05T01:54:51.531Z,12.00
2022-10-05T01:55:19.165Z,21.10
2022-10-05T01:55:45.547Z,19.40
2022-10-05T01:56:13.619Z,22.30
2022-10-05T01:56:39.645Z,27.60
2022-10-05T01:57:06.865Z,29.70
2022-10-05T01:57:34.491Z,28.70
2022-10-05T01:58:11.170Z,27.80
2022-10-05T01:58:36.636Z,22.10
2022-10-05T01:59:04.154Z,25.50
2022-10-05T01:59:32.154Z,24.80
2022-10-05T02:00:04.622Z,16.90
2022-10-05T02:00:27.349Z,20.80
2022-10-05T02:00:54.834Z,23.00
2022-10-05T02:01:20.389Z,20.10
2022-10-05T02:01:48.016Z,23.00
2022-10-05T02:02:11.561Z,28.10
2022-10-05T02:02:36.394Z,16.90
2022-10-05T02:03:01.946Z,15.60
2022-10-05T02:03:27.036Z,19.50
2022-10-05T02:03:53.636Z,21.50
2022-10-05T02:04:42.698Z,22.80
2022-10-05T02:05:04.784Z,18.60
2022-10-05T02:05:30.285Z,15.90
2022-10-05T02:05:55.686Z,16.30
2022-10-05T02:06:20.145Z,16.10
2022-10-05T02:06:44.438Z,12.90
2022-10-05T02:07:09.455Z,15.00
2022-10-05T02:07:34.715Z,15.10
2022-10-05T02:07:59.327Z,16.10
2022-10-05T02:08:25.325Z,13.10
2022-10-05T02:08:50.614Z,11.90
2022-10-05T02:09:14.879Z,15.50
2022-10-05T02:09:40.147Z,14.50
2022-10-05T02:10:05.079Z,17.40
2022-10-05T02:10:30.780Z,21.60
2022-10-05T02:10:55.874Z,19.20
2022-10-05T02:11:18.549Z,19.90
2022-10-05T02:11:41.726Z,18.80
2022-10-05T02:12:08.409Z,19.50
2022-10-05T02:12:33.920Z,17.70
2022-10-05T02:12:59.221Z,16.60
2022-10-05T02:13:28.161Z,16.10
2022-10-05T02:13:53.319Z,16.00
2022-10-05T02:14:17.940Z,16.90
2022-10-05T02:14:43.504Z,18.20
2022-10-05T02:15:10.710Z,17.90
2022-10-05T02:15:37.659Z,17.80
2022-10-05T02:16:02.367Z,18.20
2022-10-05T02:16:28.608Z,17.40
2022-10-05T02:16:51.820Z,16.80
2022-10-05T02:17:15.345Z,18.30
2022-10-05T02:17:40.604Z,18.50
2022-10-05T02:18:06.410Z,23.00
2022-10-05T02:18:31.799Z,21.00
2022-10-05T02:18:56.679Z,20.00
2022-10-05T02:19:22.583Z,25.30
2022-10-05T02:19:46.581Z,20.00
2022-10-05T02:20:11.561Z,17.80
2022-10-05T02:20:35.379Z,18.30
2022-10-05T02:20:58.086Z,18.20
2022-10-05T02:21:23.385Z,18.00
2022-10-05T02:21:49.118Z,18.80
2022-10-05T02:22:15.224Z,19.80
2022-10-05T02:22:38.700Z,20.20
2022-10-05T02:23:04.089Z,20.00
2022-10-05T02:23:29.280Z,20.70
2022-10-05T02:23:54.720Z,20.00
2022-10-05T02:24:19.569Z,17.20
2022-10-05T02:24:44.787Z,17.10
2022-10-05T02:25:10.153Z,15.50
2022-10-05T02:25:34.822Z,14.10
2022-10-05T02:25:57.573Z,22.90
2022-10-05T02:26:20.327Z,24.20
2022-10-05T02:26:43.306Z,23.10
2022-10-05T02:27:09.094Z,25.80
2022-10-05T02:27:33.489Z,27.50
2022-10-05T02:27:58.825Z,27.50
2022-10-05T02:28:23.840Z,30.70
2022-10-05T02:28:47.998Z,29.40
2022-10-05T02:29:11.965Z,30.70
2022-10-05T02:29:36.157Z,28.20
2022-10-05T02:30:01.949Z,28.50
2022-10-05T02:30:24.683Z,28.20
2022-10-05T02:30:49.580Z,30.20
2022-10-05T02:31:13.326Z,23.80
2022-10-05T02:31:38.399Z,26.80
2022-10-05T02:32:03.683Z,27.60
2022-10-05T02:32:27.802Z,28.40
2022-10-05T02:32:54.211Z,27.90
2022-10-05T02:33:19.781Z,33.40
2022-10-05T02:33:42.510Z,35.20
2022-10-05T02:34:24.708Z,34.10
2022-10-05T02:34:47.521Z,33.40
2022-10-05T02:35:14.016Z,32.70
2022-10-05T02:35:36.816Z,33.20
2022-10-05T02:36:02.250Z,32.80
2022-10-05T02:36:29.121Z,33.30
2022-10-05T02:36:55.341Z,33.20
2022-10-05T02:37:23.356Z,33.80
2022-10-05T02:37:50.548Z,34.00
2022-10-05T02:38:16.336Z,33.60
2022-10-05T02:38:44.162Z,34.90
2022-10-05T02:39:09.756Z,34.40
2022-10-05T02:39:36.256Z,31.60
2022-10-05T02:40:10.305Z,32.90
2022-10-05T02:40:40.653Z,33.00
2022-10-05T02:41:06.562Z,33.60
2022-10-05T02:41:37.600Z,32.90
2022-10-05T02:42:03.521Z,32.60
2022-10-05T02:42:28.634Z,32.50
2022-10-05T02:42:56.919Z,32.90
2022-10-05T02:43:26.244Z,33.80
2022-10-05T02:43:52.539Z,32.40
2022-10-05T02:44:20.650Z,33.10
2022-10-05T02:44:46.067Z,31.80
2022-10-05T02:45:14.311Z,33.70
2022-10-05T02:45:41.678Z,33.60
2022-10-05T02:46:07.496Z,32.80
2022-10-05T02:46:33.324Z,32.90
2022-10-05T02:46:58.736Z,33.90
2022-10-05T02:47:27.528Z,34.20
2022-10-05T02:47:53.897Z,33.80
2022-10-05T02:48:21.104Z,33.70
2022-10-05T02:48:48.637Z,33.00
2022-10-05T02:49:18.875Z,33.00
2022-10-05T02:49:43.829Z,30.90
2022-10-05T02:50:11.112Z,32.90
2022-10-05T02:50:37.572Z,27.20
2022-10-05T02:51:04.325Z,28.10
2022-10-05T02:51:27.841Z,29.80
2022-10-05T02:51:54.404Z,30.00
2022-10-05T02:52:22.128Z,28.70
2022-10-05T02:52:47.750Z,25.70
2022-10-05T02:53:15.846Z,25.90
2022-10-05T02:53:43.064Z,27.70
2022-10-05T02:54:09.285Z,28.50
2022-10-05T02:54:40.501Z,27.80
2022-10-05T02:55:06.257Z,23.90
2022-10-05T02:55:31.811Z,30.40
2022-10-05T02:56:01.914Z,32.00
2022-10-05T02:56:28.155Z,33.80
2022-10-05T02:56:55.331Z,32.20
2022-10-05T02:57:21.916Z,29.10
2022-10-05T02:57:47.585Z,32.60
2022-10-05T02:58:12.536Z,26.00
2022-10-05T02:58:40.645Z,26.40
2022-10-05T02:59:07.372Z,29.10
2022-10-05T02:59:34.170Z,28.50
2022-10-05T03:00:00.530Z,29.00
2022-10-05T03:00:24.301Z,29.00
2022-10-05T03:00:48.384Z,28.50
2022-10-05T03:01:15.264Z,26.90
2022-10-05T03:01:40.311Z,28.70
2022-10-05T03:02:08.014Z,28.70
2022-10-05T03:02:34.075Z,30.70
2022-10-05T03:03:01.275Z,33.50
2022-10-05T03:03:28.337Z,26.00
2022-10-05T03:03:54.851Z,26.10
2022-10-05T03:04:26.306Z,26.80
2022-10-05T03:04:54.700Z,28.10
2022-10-05T03:05:20.451Z,27.00
2022-10-05T03:05:46.630Z,26.00
2022-10-05T03:06:13.441Z,26.80
2022-10-05T03:06:43.119Z,27.00
2022-10-05T03:07:12.336Z,27.00
2022-10-05T03:07:39.160Z,26.90
2022-10-05T03:08:03.318Z,26.60
2022-10-05T03:08:29.765Z,26.70
2022-10-05T03:09:04.065Z,26.30
2022-10-05T03:09:29.596Z,25.70
2022-10-05T03:10:00.772Z,34.30
2022-10-05T03:10:28.145Z,36.90
2022-10-05T03:10:56.323Z,36.90
2022-10-05T03:11:22.732Z,37.20
2022-10-05T03:11:50.341Z,38.60
2022-10-05T03:12:21.124Z,33.70
2022-10-05T03:12:52.805Z,27.20
2022-10-05T03:13:20.150Z,31.30
2022-10-05T03:13:47.841Z,33.40
2022-10-05T03:14:13.765Z,33.70
2022-10-05T03:14:39.987Z,34.40
2022-10-05T03:15:07.361Z,34.50
2022-10-05T03:15:48.312Z,36.30
2022-10-05T03:16:21.021Z,36.10
2022-10-05T03:16:49.185Z,38.40
2022-10-05T03:17:13.760Z,31.60
2022-10-05T03:17:40.806Z,28.80
2022-10-05T03:18:07.976Z,29.00
2022-10-05T03:18:39.810Z,28.60
2022-10-05T03:19:10.588Z,29.70
2022-10-05T03:19:44.612Z,30.00
2022-10-05T03:20:14.246Z,29.00
2022-10-05T03:20:40.486Z,29.70
2022-10-05T03:21:09.809Z,29.30
2022-10-05T03:21:41.495Z,29.80
2022-10-05T03:22:08.901Z,30.80
2022-10-05T03:22:38.878Z,37.00
2022-10-05T03:23:01.926Z,39.40
2022-10-05T03:23:28.730Z,36.00
2022-10-05T03:23:59.542Z,36.70
2022-10-05T03:24:44.601Z,38.20
2022-10-05T03:25:30.563Z,37.70
2022-10-05T03:26:00.390Z,41.60
2022-10-05T03:26:33.736Z,41.70
2022-10-05T03:27:00.785Z,41.50
2022-10-05T03:27:30.161Z,41.50
2022-10-05T03:27:55.955Z,39.80
2022-10-05T03:28:22.220Z,41.30
2022-10-05T03:28:51.680Z,41.00
2022-10-05T03:29:24.155Z,37.90
2022-10-05T03:29:50.106Z,38.10
2022-10-05T03:30:15.465Z,36.80
2022-10-05T03:30:41.326Z,36.90
2022-10-05T03:31:05.014Z,36.40
2022-10-05T03:31:31.085Z,36.60
2022-10-05T03:31:57.223Z,36.10
2022-10-05T03:32:23.349Z,34.10
2022-10-05T03:32:51.837Z,33.80
2022-10-05T03:33:17.095Z,33.70
2022-10-05T03:33:42.589Z,35.10
2022-10-05T03:34:08.316Z,35.80
2022-10-05T03:34:35.168Z,36.80
2022-10-05T03:35:02.414Z,34.90
2022-10-05T03:35:29.121Z,24.00
2022-10-05T03:35:56.481Z,25.80
2022-10-05T03:36:23.237Z,32.80
2022-10-05T03:36:49.707Z,41.10
2022-10-05T03:37:15.835Z,40.20
2022-10-05T03:37:42.400Z,27.20
2022-10-05T03:38:09.095Z,26.60
2022-10-05T03:38:34.865Z,27.10
2022-10-05T03:39:01.469Z,25.60
2022-10-05T03:39:27.044Z,26.20
2022-10-05T03:39:54.028Z,27.70
2022-10-05T03:40:25.376Z,25.70
2022-10-05T03:40:50.874Z,25.40
2022-10-05T03:41:19.102Z,28.20
2022-10-05T03:41:43.374Z,28.00
2022-10-05T03:42:10.684Z,30.90
2022-10-05T03:42:36.462Z,31.20
2022-10-05T03:43:06.739Z,31.60
2022-10-05T03:43:57.541Z,34.00
2022-10-05T03:44:35.759Z,31.70
2022-10-05T03:45:00.448Z,32.30
2022-10-05T03:45:26.447Z,37.60
2022-10-05T03:45:54.882Z,38.20
2022-10-05T03:46:19.907Z,36.90
2022-10-05T03:46:49.839Z,37.60
2022-10-05T03:47:16.642Z,37.30
2022-10-05T03:47:45.708Z,37.70
2022-10-05T03:48:09.934Z,38.20
2022-10-05T03:48:34.669Z,37.60
2022-10-05T03:49:03.073Z,37.20
2022-10-05T03:49:31.288Z,37.50
2022-10-05T03:50:02.307Z,38.20
2022-10-05T03:50:31.484Z,38.10
2022-10-05T03:50:59.209Z,39.60
2022-10-05T03:51:25.328Z,38.00
2022-10-05T03:51:51.601Z,31.40
2022-10-05T03:52:16.447Z,24.80
2022-10-05T03:52:40.113Z,27.90
2022-10-05T03:53:04.417Z,27.00
2022-10-05T03:53:28.684Z,27.00
2022-10-05T03:53:57.015Z,26.90
2022-10-05T03:54:23.021Z,30.20
2022-10-05T03:54:48.097Z,32.60
2022-10-05T03:55:16.915Z,30.80
2022-10-05T03:55:42.737Z,30.30
2022-10-05T03:56:06.773Z,30.80
2022-10-05T03:56:31.701Z,30.40
2022-10-05T03:56:55.815Z,30.00
2022-10-05T03:57:19.767Z,29.40
2022-10-05T03:57:42.515Z,30.20
2022-10-05T03:58:07.458Z,31.70
2022-10-05T03:58:33.975Z,30.00
2022-10-05T03:58:57.905Z,29.40
2022-10-05T03:59:22.895Z,29.50
2022-10-05T03:59:52.015Z,29.30
2022-10-05T04:00:16.397Z,29.70
2022-10-05T04:00:39.251Z,29.20
2022-10-05T04:01:03.396Z,28.10
2022-10-05T04:01:36.115Z,28.20
2022-10-05T04:02:01.468Z,24.40
2022-10-05T04:02:27.405Z,23.70
2022-10-05T04:02:53.552Z,20.90
2022-10-05T04:03:19.006Z,26.70
2022-10-05T04:03:44.171Z,26.00
2022-10-05T04:04:07.671Z,23.80
2022-10-05T04:04:33.600Z,32.90
2022-10-05T04:04:59.525Z,33.40
2022-10-05T04:05:25.128Z,31.40
2022-10-05T04:05:50.880Z,32.00
2022-10-05T04:06:15.537Z,28.30
2022-10-05T04:06:44.061Z,23.00
2022-10-05T04:07:08.995Z,28.60
2022-10-05T04:07:37.436Z,27.00
2022-10-05T04:08:01.910Z,25.30
2022-10-05T04:08:29.850Z,25.50
2022-10-05T04:08:54.715Z,25.00
2022-10-05T04:09:23.055Z,25.80
2022-10-05T04:09:46.850Z,28.10
2022-10-05T04:10:15.035Z,27.50
2022-10-05T04:10:41.910Z,26.70
2022-10-05T04:11:06.241Z,27.20
2022-10-05T04:11:32.850Z,27.50
2022-10-05T04:11:58.715Z,20.30
2022-10-05T04:12:24.320Z,20.50
2022-10-05T04:12:49.776Z,21.50
2022-10-05T04:13:15.895Z,22.80
2022-10-05T04:13:42.620Z,23.40
2022-10-05T04:14:07.035Z,19.30
2022-10-05T04:14:34.431Z,20.20
2022-10-05T04:14:59.605Z,20.70
2022-10-05T04:15:27.362Z,20.10
2022-10-05T04:15:53.792Z,23.40
2022-10-05T04:16:18.631Z,20.70
2022-10-05T04:16:43.238Z,21.40
2022-10-05T04:17:09.140Z,21.40
2022-10-05T04:17:34.087Z,20.40
2022-10-05T04:17:58.379Z,20.00
2022-10-05T04:18:25.357Z,19.70
2022-10-05T04:18:50.529Z,20.00
2022-10-05T04:19:17.861Z,20.50
2022-10-05T04:19:44.541Z,20.00
2022-10-05T04:20:10.368Z,20.50
2022-10-05T04:20:36.656Z,20.40
2022-10-05T04:21:01.756Z,20.30
2022-10-05T04:21:25.429Z,20.80
2022-10-05T04:21:50.721Z,21.40
2022-10-05T04:22:16.005Z,21.50
2022-10-05T04:22:40.425Z,21.90
2022-10-05T04:23:07.866Z,21.70
2022-10-05T04:23:40.396Z,21.70
2022-10-05T04:24:05.315Z,22.20
2022-10-05T04:24:31.375Z,21.50
2022-10-05T04:24:56.298Z,21.70
2022-10-05T04:25:20.501Z,21.90
2022-10-05T04:25:44.327Z,22.40
2022-10-05T04:26:09.291Z,22.10
2022-10-05T04:26:35.782Z,21.50
2022-10-05T04:26:59.000Z,22.00
2022-10-05T04:27:22.655Z,21.90
2022-10-05T04:27:47.542Z,22.30
2022-10-05T04:28:12.504Z,21.70
2022-10-05T04:28:41.685Z,21.40
2022-10-05T04:29:07.830Z,21.60
2022-10-05T04:29:32.918Z,21.40
2022-10-05T04:29:57.823Z,20.70
2022-10-05T04:30:24.751Z,19.00
2022-10-05T04:30:47.989Z,17.80
2022-10-05T04:31:11.744Z,17.30
2022-10-05T04:31:43.285Z,16.70
2022-10-05T04:32:16.960Z,15.10
2022-10-05T04:32:41.926Z,13.50
2022-10-05T04:33:09.510Z,10.80
2022-10-05T04:33:32.649Z,12.50
2022-10-05T04:34:00.979Z,14.10
2022-10-05T04:34:47.596Z,13.80
2022-10-05T04:35:38.721Z,15.10
2022-10-05T04:36:26.565Z,15.80
2022-10-05T04:36:51.940Z,15.90
2022-10-05T04:37:18.384Z,16.30
2022-10-05T04:37:46.734Z,17.00
2022-10-05T04:38:17.400Z,17.80
2022-10-05T04:38:53.167Z,17.80
2022-10-05T04:39:20.254Z,17.60
2022-10-05T04:39:46.308Z,18.30
2022-10-05T04:40:15.797Z,18.50
2022-10-05T04:40:44.902Z,22.10
2022-10-05T04:41:19.854Z,23.60
2022-10-05T04:41:52.740Z,22.80
2022-10-05T04:42:20.306Z,23.00
2022-10-05T04:42:46.080Z,23.10
2022-10-05T04:43:13.673Z,23.10
2022-10-05T04:43:40.834Z,22.90
2022-10-05T04:44:14.073Z,21.30
2022-10-05T04:44:45.114Z,20.80
2022-10-05T04:45:14.978Z,21.40
2022-10-05T04:45:49.909Z,22.30
2022-10-05T04:46:21.141Z,22.40
2022-10-05T04:46:52.818Z,21.70
2022-10-05T04:47:23.899Z,21.60
2022-10-05T04:48:17.685Z,21.90
2022-10-05T04:48:55.988Z,22.70
2022-10-05T04:49:30.639Z,23.40
2022-10-05T04:50:04.093Z,23.70
2022-10-05T04:50:33.931Z,24.70
2022-10-05T04:51:03.998Z,24.20
2022-10-05T04:51:34.699Z,24.00
2022-10-05T04:52:00.170Z,23.30
2022-10-05T04:52:25.982Z,23.20
2022-10-05T04:52:53.411Z,23.10
2022-10-05T04:53:23.095Z,23.20
2022-10-05T04:53:50.829Z,22.80
2022-10-05T04:54:19.204Z,23.50
2022-10-05T04:54:47.753Z,23.10
2022-10-05T04:55:19.844Z,22.80
2022-10-05T04:55:48.963Z,22.90
2022-10-05T04:56:13.230Z,23.60
2022-10-05T04:56:38.834Z,23.70
2022-10-05T04:57:03.695Z,24.30
2022-10-05T04:57:28.608Z,25.20
2022-10-05T04:57:54.348Z,26.30
2022-10-05T04:58:21.933Z,25.50
2022-10-05T04:59:01.485Z,25.60
2022-10-05T04:59:55.119Z,24.70
2022-10-05T05:00:25.334Z,22.30
2022-10-05T05:00:55.239Z,21.80
2022-10-05T05:01:27.680Z,18.40
2022-10-05T05:02:03.686Z,15.10
2022-10-05T05:02:30.998Z,17.00
2022-10-05T05:03:04.806Z,16.80
2022-10-05T05:03:50.008Z,18.10
2022-10-05T05:04:35.269Z,17.10
2022-10-05T05:05:24.225Z,16.50
2022-10-05T05:06:15.954Z,17.80
2022-10-05T05:06:39.103Z,17.30
2022-10-05T05:07:09.083Z,19.10
2022-10-05T05:07:39.728Z,19.00
2022-10-05T05:08:12.180Z,21.00
2022-10-05T05:08:43.936Z,21.60
2022-10-05T05:09:31.359Z,20.60
2022-10-05T05:10:08.440Z,20.80
2022-10-05T05:11:06.970Z,19.40
2022-10-05T05:11:30.619Z,19.00
2022-10-05T05:12:04.020Z,16.70
2022-10-05T05:12:29.134Z,18.30
2022-10-05T05:12:57.360Z,17.30
2022-10-05T05:13:32.254Z,14.70
2022-10-05T05:14:30.300Z,13.00
2022-10-05T05:15:12.675Z,15.80
2022-10-05T05:15:41.972Z,15.90
2022-10-05T05:16:09.173Z,16.20
2022-10-05T05:16:33.907Z,16.40
2022-10-05T05:17:02.556Z,15.90
2022-10-05T05:17:34.945Z,11.90
2022-10-05T05:18:07.475Z,14.60
2022-10-05T05:18:46.833Z,16.20
2022-10-05T05:19:23.839Z,14.60
2022-10-05T05:19:51.593Z,14.80
2022-10-05T05:20:19.627Z,25.50
2022-10-05T05:20:51.514Z,26.00
2022-10-05T05:21:20.301Z,26.30
2022-10-05T05:21:46.400Z,26.30
2022-10-05T05:22:14.588Z,29.50
2022-10-05T05:22:43.837Z,28.30
2022-10-05T05:23:11.011Z,27.00
2022-10-05T05:23:38.096Z,36.60
2022-10-05T05:24:05.452Z,36.20
2022-10-05T05:24:34.607Z,27.40
2022-10-05T05:25:17.514Z,27.90
2022-10-05T05:25:44.375Z,28.90
2022-10-05T05:26:15.857Z,29.10
2022-10-05T05:26:49.125Z,36.30
2022-10-05T05:27:27.368Z,40.20
2022-10-05T05:27:53.410Z,24.90
2022-10-05T05:28:19.486Z,26.20
2022-10-05T05:28:45.836Z,27.70
2022-10-05T05:29:14.173Z,26.70
2022-10-05T05:29:43.847Z,26.30
2022-10-05T05:30:13.723Z,33.30
2022-10-05T05:30:39.727Z,26.80
2022-10-05T05:31:08.954Z,23.30
2022-10-05T05:31:35.790Z,13.10
2022-10-05T05:32:01.312Z,4.90
2022-10-05T05:32:29.512Z,29.10
2022-10-05T05:33:06.557Z,39.70
2022-10-05T05:33:32.534Z,2.20
2022-10-05T05:33:59.452Z,8.80
2022-10-05T05:34:36.256Z,1.00
2022-10-05T05:35:14.536Z,1.00
2022-10-05T05:35:59.477Z,76.40
2022-10-05T05:36:48.697Z,99.90
2022-10-05T05:37:15.277Z,99.90
2022-10-05T05:37:42.102Z,99.90
2022-10-05T05:38:11.903Z,99.90
2022-10-05T05:38:35.606Z,99.90
2022-10-05T05:39:05.784Z,99.90
2022-10-05T05:39:29.695Z,99.90
2022-10-05T05:39:55.049Z,99.90
2022-10-05T05:40:20.554Z,99.90
2022-10-05T05:40:45.484Z,99.90
2022-10-05T05:41:10.525Z,99.90
2022-10-05T05:41:37.610Z,99.90
2022-10-05T05:42:02.581Z,99.90
2022-10-05T05:42:31.756Z,99.90
2022-10-05T05:42:57.925Z,99.90
2022-10-05T05:43:24.910Z,99.90
2022-10-05T05:43:54.570Z,99.90
2022-10-05T05:44:20.516Z,99.90
2022-10-05T05:44:46.856Z,99.90
2022-10-05T05:45:16.646Z,99.90
2022-10-05T05:45:41.311Z,99.90
2022-10-05T05:46:07.084Z,99.90
2022-10-05T05:46:58.414Z,99.90
2022-10-05T05:47:20.594Z,99.90
2022-10-05T05:47:47.414Z,99.90
2022-10-05T05:48:16.477Z,99.90
2022-10-05T05:48:42.860Z,99.90
2022-10-05T05:49:08.589Z,99.90
2022-10-05T05:49:41.633Z,99.90
2022-10-05T05:50:17.484Z,99.90
2022-10-05T05:50:43.565Z,99.90
2022-10-05T05:51:08.867Z,99.90
2022-10-05T05:51:35.146Z,99.90
2022-10-05T05:51:59.844Z,99.90
2022-10-05T05:52:24.654Z,99.90
2022-10-05T05:52:49.614Z,99.90
2022-10-05T05:53:15.171Z,99.90
2022-10-05T05:53:39.687Z,99.90
2022-10-05T05:54:18.729Z,99.90
2022-10-05T05:54:42.457Z,99.90
2022-10-05T05:55:08.785Z,99.90
2022-10-05T05:55:34.774Z,99.90
2022-10-05T05:56:00.805Z,99.90
2022-10-05T05:56:26.400Z,99.90
2022-10-05T05:56:52.008Z,99.90